Time,TemperatureF,DewpointF,PressureIn,WindDirection,WindDirectionDegrees,WindSpeedMPH,WindSpeedGustMPH,Humidity,HourlyPrecipIn,Conditions,Clouds,dailyrainin,SoftwareType,DateUTC
2013-01-05 00:02:00,27.9,19.4,29.06,South,173,0.0,0.0,70,0.00,,BKN220,0.00,VWS V14.01,2013-01-05 06:02:00,
2013-01-05 00:07:00,27.9,19.4,29.06,South,169,0.0,0.0,70,0.00,,BKN220,0.00,VWS V14.01,2013-01-05 06:07:00,
2013-01-05 00:12:00,27.7,19.2,29.06,SSE,167,0.0,0.0,70,0.00,,BKN220,0.00,VWS V14.01,2013-01-05 06:12:00,
2013-01-05 00:17:00,27.7,19.2,29.06,South,171,0.0,0.0,70,0.00,,BKN220,0.00,VWS V14.01,2013-01-05 06:17:00,
2013-01-05 00:22:00,27.9,19.4,29.06,South,170,0.0,0.0,70,0.00,,BKN220,0.00,VWS V14.01,2013-01-05 06:22:00,
2013-01-05 00:27:00,27.7,19.5,29.06,SSE,162,0.0,0.0,71,0.00,,BKN220,0.00,VWS V14.01,2013-01-05 06:27:00,
2013-01-05 00:32:00,27.5,19.4,29.06,SSE,163,0.0,0.0,71,0.00,,BKN220,0.00,VWS V14.01,2013-01-05 06:32:00,
2013-01-05 00:37:00,27.5,19.4,29.06,SSE,168,0.0,0.0,71,0.00,,BKN220,0.00,VWS V14.01,2013-01-05 06:37:00,
2013-01-05 00:42:00,27.7,19.5,29.06,South,173,0.0,0.0,71,0.00,,BKN220,0.00,VWS V14.01,2013-01-05 06:42:00,
2013-01-05 00:47:00,27.7,19.5,29.06,South,170,0.0,0.0,71,0.00,,BKN220,0.00,VWS V14.01,2013-01-05 06:47:00,
2013-01-05 00:52:00,27.7,19.5,29.06,South,170,0.0,0.0,71,0.00,,BKN220,0.00,VWS V14.01,2013-01-05 06:52:00,
2013-01-05 00:57:00,27.7,19.5,29.03,SSE,168,0.0,0.0,71,0.00,,BKN220,0.00,VWS V14.01,2013-01-05 06:57:00,
2013-01-05 01:02:00,27.5,19.4,29.03,South,169,0.0,0.0,71,0.00,,BKN220,0.00,VWS V14.01,2013-01-05 07:02:00,
2013-01-05 01:07:00,27.5,19.4,29.03,South,170,0.0,0.0,71,0.00,,BKN220,0.00,VWS V14.01,2013-01-05 07:07:00,
2013-01-05 01:12:00,27.5,19.7,29.03,South,169,0.0,0.0,72,0.00,,BKN220,0.00,VWS V14.01,2013-01-05 07:12:00,
2013-01-05 01:17:00,27.5,19.7,29.03,SSE,168,0.0,0.0,72,0.00,,BKN220,0.00,VWS V14.01,2013-01-05 07:17:00,
2013-01-05 01:22:00,27.5,19.7,29.03,SSE,168,0.0,0.0,72,0.00,,BKN220,0.00,VWS V14.01,2013-01-05 07:22:00,
2013-01-05 01:28:00,27.5,19.7,29.03,SSE,167,0.0,0.0,72,0.00,,BKN220,0.00,VWS V14.01,2013-01-05 07:28:00,
2013-01-05 01:33:00,27.3,19.5,29.03,South,169,0.0,0.0,72,0.00,,BKN220,0.00,VWS V14.01,2013-01-05 07:33:00,
2013-01-05 01:38:00,27.5,19.7,29.03,South,169,0.0,0.0,72,0.00,,BKN220,0.00,VWS V14.01,2013-01-05 07:38:00,
2013-01-05 01:43:00,27.3,19.5,29.03,South,169,0.0,0.0,72,0.00,,BKN220,0.00,VWS V14.01,2013-01-05 07:43:00,
2013-01-05 01:48:00,27.3,19.5,29.03,South,169,0.0,0.0,72,0.00,,BKN220,0.00,VWS V14.01,2013-01-05 07:48:00,
2013-01-05 01:53:00,27.1,19.3,29.03,SSE,168,0.0,0.0,72,0.00,,BKN220,0.00,VWS V14.01,2013-01-05 07:53:00,
2013-01-05 01:58:00,27.1,19.3,29.03,SSE,168,0.0,0.0,72,0.00,,BKN220,0.00,VWS V14.01,2013-01-05 07:58:00,
2013-01-05 02:03:00,27.1,19.3,29.03,SSE,168,0.0,0.0,72,0.00,,SCT220,0.00,VWS V14.01,2013-01-05 08:03:00,
2013-01-05 02:08:00,27.3,19.8,29.03,SSE,160,0.0,0.0,73,0.00,,SCT220,0.00,VWS V14.01,2013-01-05 08:08:00,
2013-01-05 02:13:00,27.1,19.6,29.03,SSE,159,0.0,0.0,73,0.00,,SCT220,0.00,VWS V14.01,2013-01-05 08:13:00,
2013-01-05 02:18:00,27.1,19.6,29.03,SSE,159,0.0,0.0,73,0.00,,SCT220,0.00,VWS V14.01,2013-01-05 08:18:00,
2013-01-05 02:23:00,27.0,19.5,29.03,South,172,0.0,0.0,73,0.00,,SCT220,0.00,VWS V14.01,2013-01-05 08:23:00,
2013-01-05 02:28:00,27.1,19.6,29.03,South,171,0.0,0.0,73,0.00,,SCT220,0.00,VWS V14.01,2013-01-05 08:28:00,
2013-01-05 02:33:00,27.1,19.6,29.03,South,172,0.0,0.0,73,0.00,,SCT220,0.00,VWS V14.01,2013-01-05 08:33:00,
2013-01-05 02:38:00,27.0,19.5,29.03,South,171,0.0,0.0,73,0.00,,SCT220,0.00,VWS V14.01,2013-01-05 08:38:00,
2013-01-05 02:43:00,27.0,19.5,29.03,SSE,164,0.0,0.0,73,0.00,,SCT220,0.00,VWS V14.01,2013-01-05 08:43:00,
2013-01-05 02:48:00,27.0,19.5,29.03,South,171,0.0,0.0,73,0.00,,SCT220,0.00,VWS V14.01,2013-01-05 08:48:00,
2013-01-05 02:53:00,26.8,19.3,29.03,South,173,0.0,0.0,73,0.00,,SCT220,0.00,VWS V14.01,2013-01-05 08:53:00,
2013-01-05 02:58:00,26.8,19.3,29.03,South,173,0.0,0.0,73,0.00,,SCT220,0.00,VWS V14.01,2013-01-05 08:58:00,
2013-01-05 03:03:00,26.8,19.3,29.03,South,173,0.0,0.0,73,0.00,,SCT220,0.00,VWS V14.01,2013-01-05 09:03:00,
2013-01-05 03:08:00,26.6,19.4,29.03,South,173,0.0,0.0,74,0.00,,SCT220,0.00,VWS V14.01,2013-01-05 09:08:00,
2013-01-05 03:13:00,26.4,19.3,29.03,South,173,0.0,0.0,74,0.00,,SCT220,0.00,VWS V14.01,2013-01-05 09:13:00,
2013-01-05 03:18:00,26.4,19.3,29.03,SSE,166,0.0,0.0,74,0.00,,SCT220,0.00,VWS V14.01,2013-01-05 09:18:00,
2013-01-05 03:23:00,26.4,19.3,29.03,SSE,165,0.0,0.0,74,0.00,,SCT220,0.00,VWS V14.01,2013-01-05 09:23:00,
2013-01-05 03:28:00,26.4,19.3,29.03,SSE,164,0.0,0.0,74,0.00,,SCT220,0.00,VWS V14.01,2013-01-05 09:28:00,
2013-01-05 03:33:00,26.4,19.6,29.03,SSE,164,0.0,0.0,75,0.00,,SCT220,0.00,VWS V14.01,2013-01-05 09:33:00,
2013-01-05 03:38:00,26.2,19.4,29.03,SSE,162,0.0,0.0,75,0.00,,SCT220,0.00,VWS V14.01,2013-01-05 09:38:00,
2013-01-05 03:43:00,26.2,19.4,29.03,SSE,162,0.0,0.0,75,0.00,,SCT220,0.00,VWS V14.01,2013-01-05 09:43:00,
2013-01-05 03:48:00,26.2,19.4,29.03,SSE,162,0.0,0.0,75,0.00,,SCT220,0.00,VWS V14.01,2013-01-05 09:48:00,
2013-01-05 03:53:00,26.2,19.4,29.03,SSE,161,0.0,0.0,75,0.00,,SCT220,0.00,VWS V14.01,2013-01-05 09:53:00,
2013-01-05 03:58:00,26.1,19.2,29.03,SSE,160,0.0,0.0,75,0.00,,SCT220,0.00,VWS V14.01,2013-01-05 09:58:00,
2013-01-05 04:04:00,26.1,19.2,29.03,SSE,158,0.0,0.0,75,0.00,,FEW200,0.00,VWS V14.01,2013-01-05 10:04:00,
2013-01-05 04:09:00,25.9,19.1,29.03,SSE,158,0.0,0.0,75,0.00,,FEW200,0.00,VWS V14.01,2013-01-05 10:09:00,
2013-01-05 04:14:00,25.9,19.1,29.03,SSE,158,0.0,0.0,75,0.00,,FEW200,0.00,VWS V14.01,2013-01-05 10:14:00,
2013-01-05 04:19:00,25.7,18.9,29.03,SSE,158,0.0,0.0,75,0.00,,FEW200,0.00,VWS V14.01,2013-01-05 10:19:00,
2013-01-05 04:24:00,25.7,18.9,29.03,SSE,158,0.0,0.0,75,0.00,,FEW200,0.00,VWS V14.01,2013-01-05 10:24:00,
2013-01-05 04:29:00,25.7,18.9,29.00,SSE,158,0.0,0.0,75,0.00,,FEW200,0.00,VWS V14.01,2013-01-05 10:29:00,
2013-01-05 04:34:00,25.7,18.9,29.00,SSE,158,0.0,0.0,75,0.00,,FEW200,0.00,VWS V14.01,2013-01-05 10:34:00,
2013-01-05 04:39:00,25.7,19.2,29.00,SSE,158,0.0,0.0,76,0.00,,FEW200,0.00,VWS V14.01,2013-01-05 10:39:00,
2013-01-05 04:44:00,25.3,18.5,29.00,SSE,158,0.0,0.0,75,0.00,,FEW200,0.00,VWS V14.01,2013-01-05 10:44:00,
2013-01-05 04:49:00,25.3,18.5,29.00,SSE,158,0.0,0.0,75,0.00,,FEW200,0.00,VWS V14.01,2013-01-05 10:49:00,
2013-01-05 04:54:00,25.3,18.9,29.00,SSE,157,0.0,0.0,76,0.00,,FEW200,0.00,VWS V14.01,2013-01-05 10:54:00,
2013-01-05 04:59:00,25.2,18.7,29.00,SSE,157,0.0,0.0,76,0.00,,FEW200,0.00,VWS V14.01,2013-01-05 10:59:00,
2013-01-05 05:04:00,25.2,18.7,29.00,SSE,157,0.0,0.0,76,0.00,,FEW200,0.00,VWS V14.01,2013-01-05 11:04:00,
2013-01-05 05:09:00,25.2,18.7,29.00,SSE,163,0.0,0.0,76,0.00,,FEW200,0.00,VWS V14.01,2013-01-05 11:09:00,
2013-01-05 05:14:00,25.2,18.7,29.00,SSE,157,0.0,0.0,76,0.00,,FEW200,0.00,VWS V14.01,2013-01-05 11:14:00,
2013-01-05 05:19:00,25.2,18.7,29.00,SSE,157,0.0,0.0,76,0.00,,FEW200,0.00,VWS V14.01,2013-01-05 11:19:00,
2013-01-05 05:24:00,25.3,18.9,29.00,SSE,157,0.0,0.0,76,0.00,,FEW200,0.00,VWS V14.01,2013-01-05 11:24:00,
2013-01-05 05:29:00,25.2,18.7,29.00,SSE,157,0.0,0.0,76,0.00,,FEW200,0.00,VWS V14.01,2013-01-05 11:29:00,
2013-01-05 05:34:00,25.0,18.5,29.00,SSE,156,0.0,0.0,76,0.00,,FEW200,0.00,VWS V14.01,2013-01-05 11:34:00,
2013-01-05 05:39:00,24.8,18.3,29.00,SSE,156,0.0,0.0,76,0.00,,FEW200,0.00,VWS V14.01,2013-01-05 11:39:00,
2013-01-05 05:44:00,24.6,18.1,28.97,SSE,156,0.0,0.0,76,0.00,,FEW200,0.00,VWS V14.01,2013-01-05 11:44:00,
2013-01-05 05:49:00,24.4,18.0,28.97,SSE,161,0.0,0.0,76,0.00,,FEW200,0.00,VWS V14.01,2013-01-05 11:49:00,
2013-01-05 05:54:00,24.4,18.0,28.97,SSE,164,0.0,0.0,76,0.00,,FEW200,0.00,VWS V14.01,2013-01-05 11:54:00,
2013-01-05 05:59:00,24.6,18.1,28.97,SSE,158,0.0,0.0,76,0.00,,FEW200,0.00,VWS V14.01,2013-01-05 11:59:00,
2013-01-05 06:04:00,24.6,18.1,28.97,SE,141,0.0,0.0,76,0.00,,FEW200,0.00,VWS V14.01,2013-01-05 12:04:00,
2013-01-05 06:10:00,24.8,18.3,28.97,SSE,163,0.0,0.0,76,0.00,,FEW200,0.00,VWS V14.01,2013-01-05 12:10:00,
2013-01-05 06:15:00,24.8,18.6,28.97,SSE,149,0.0,0.0,77,0.00,,FEW200,0.00,VWS V14.01,2013-01-05 12:15:00,
2013-01-05 06:20:00,25.0,18.5,28.97,SSE,160,0.0,0.0,76,0.00,,FEW200,0.00,VWS V14.01,2013-01-05 12:20:00,
2013-01-05 06:25:00,25.0,18.5,28.97,SE,127,0.0,0.0,76,0.00,,FEW200,0.00,VWS V14.01,2013-01-05 12:25:00,
2013-01-05 06:30:00,25.0,18.5,28.97,SSE,155,0.0,0.0,76,0.00,,FEW200,0.00,VWS V14.01,2013-01-05 12:30:00,
2013-01-05 06:35:00,25.2,19.0,28.97,South,174,0.0,0.0,77,0.00,,FEW200,0.00,VWS V14.01,2013-01-05 12:35:00,
2013-01-05 06:40:00,25.2,19.0,28.97,South,169,0.0,0.0,77,0.00,,FEW200,0.00,VWS V14.01,2013-01-05 12:40:00,
2013-01-05 06:45:00,25.2,19.0,28.97,SSE,164,0.0,0.0,77,0.00,,FEW200,0.00,VWS V14.01,2013-01-05 12:45:00,
2013-01-05 06:50:00,25.2,19.0,28.97,SSE,168,3.1,3.1,77,0.00,,FEW200,0.00,VWS V14.01,2013-01-05 12:50:00,
2013-01-05 06:55:00,25.3,19.1,28.97,South,173,0.0,0.0,77,0.00,,FEW200,0.00,VWS V14.01,2013-01-05 12:55:00,
2013-01-05 07:00:00,25.5,19.6,28.97,South,172,0.0,0.0,78,0.00,,FEW200,0.00,VWS V14.01,2013-01-05 13:00:00,
2013-01-05 07:05:00,25.5,19.6,28.97,South,175,0.0,0.0,78,0.00,,FEW200,0.00,VWS V14.01,2013-01-05 13:05:00,
2013-01-05 07:10:00,25.5,19.3,28.97,WSW,241,0.0,0.0,77,0.00,,FEW200,0.00,VWS V14.01,2013-01-05 13:10:00,
2013-01-05 07:15:00,25.5,19.3,28.97,WSW,250,0.0,0.0,77,0.00,,FEW200,0.00,VWS V14.01,2013-01-05 13:15:00,
2013-01-05 07:20:00,25.5,19.3,28.97,West,260,0.0,0.0,77,0.00,,FEW200,0.00,VWS V14.01,2013-01-05 13:20:00,
2013-01-05 07:25:00,25.5,19.3,28.97,West,267,0.0,0.0,77,0.00,,FEW200,0.00,VWS V14.01,2013-01-05 13:25:00,
2013-01-05 07:30:00,25.7,19.5,28.97,West,266,0.0,0.0,77,0.00,,FEW200,0.00,VWS V14.01,2013-01-05 13:30:00,
2013-01-05 07:36:00,25.7,19.8,28.97,South,179,0.0,0.0,78,0.00,,FEW200,0.00,VWS V14.01,2013-01-05 13:36:00,
2013-01-05 07:41:00,26.1,20.1,28.97,South,181,0.0,0.0,78,0.00,,FEW200,0.00,VWS V14.01,2013-01-05 13:41:00,
2013-01-05 07:46:00,26.1,20.1,28.97,SSW,199,0.0,0.0,78,0.00,,FEW200,0.00,VWS V14.01,2013-01-05 13:46:00,
2013-01-05 07:51:00,26.2,20.3,28.97,SSW,196,0.0,0.0,78,0.00,,FEW200,0.00,VWS V14.01,2013-01-05 13:51:00,
2013-01-05 07:56:00,26.6,20.7,28.97,South,178,2.2,2.7,78,0.00,,FEW200,0.00,VWS V14.01,2013-01-05 13:56:00,
2013-01-05 08:01:00,26.8,20.9,29.00,South,175,0.0,0.0,78,0.00,,BKN200,0.00,VWS V14.01,2013-01-05 14:01:00,
2013-01-05 08:06:00,27.0,21.0,29.00,South,172,0.0,0.0,78,0.00,,BKN200,0.00,VWS V14.01,2013-01-05 14:06:00,
2013-01-05 08:11:00,27.3,21.7,29.00,South,184,0.0,0.0,79,0.00,,BKN200,0.00,VWS V14.01,2013-01-05 14:11:00,
2013-01-05 08:16:00,27.7,22.0,29.00,SSW,195,0.0,3.1,79,0.00,,BKN200,0.00,VWS V14.01,2013-01-05 14:16:00,
2013-01-05 08:21:00,27.9,22.2,29.00,South,190,5.4,5.4,79,0.00,,BKN200,0.00,VWS V14.01,2013-01-05 14:21:00,
2013-01-05 08:26:00,28.2,22.6,29.00,South,178,4.0,4.0,79,0.00,,BKN200,0.00,VWS V14.01,2013-01-05 14:26:00,
2013-01-05 08:31:00,28.6,22.9,28.97,South,184,2.7,4.0,79,0.00,,BKN200,0.00,VWS V14.01,2013-01-05 14:31:00,
2013-01-05 08:36:00,28.8,22.8,28.97,South,176,0.0,0.0,78,0.00,,BKN200,0.00,VWS V14.01,2013-01-05 14:36:00,
2013-01-05 08:41:00,28.9,23.0,28.97,South,183,4.0,4.0,78,0.00,,BKN200,0.00,VWS V14.01,2013-01-05 14:41:00,
2013-01-05 08:46:00,29.1,23.1,28.97,South,182,2.2,3.6,78,0.00,,BKN200,0.00,VWS V14.01,2013-01-05 14:46:00,
2013-01-05 08:51:00,29.5,23.2,28.97,South,180,5.4,5.4,77,0.00,,BKN200,0.00,VWS V14.01,2013-01-05 14:51:00,
2013-01-05 08:56:00,29.5,23.2,28.97,South,174,6.3,7.6,77,0.00,,BKN200,0.00,VWS V14.01,2013-01-05 14:56:00,
2013-01-05 09:02:00,29.7,23.4,28.97,South,179,4.0,6.3,77,0.00,,BKN200,0.00,VWS V14.01,2013-01-05 15:02:00,
2013-01-05 09:07:00,29.7,23.0,28.97,SSE,165,8.3,8.3,76,0.00,,BKN200,0.00,VWS V14.01,2013-01-05 15:07:00,
2013-01-05 09:12:00,29.7,23.0,28.97,SSE,158,6.3,11.0,76,0.00,,BKN200,0.00,VWS V14.01,2013-01-05 15:12:00,
2013-01-05 09:17:00,29.8,23.2,28.97,South,188,5.4,11.0,76,0.00,,BKN200,0.00,VWS V14.01,2013-01-05 15:17:00,
2013-01-05 09:22:00,29.8,22.9,28.97,South,189,8.3,9.6,75,0.00,,BKN200,0.00,VWS V14.01,2013-01-05 15:22:00,
2013-01-05 09:27:00,30.0,23.1,28.97,SSE,167,8.7,8.7,75,0.00,,BKN200,0.00,VWS V14.01,2013-01-05 15:27:00,
2013-01-05 09:32:00,30.2,23.2,28.97,South,183,11.4,11.4,75,0.00,,BKN200,0.00,VWS V14.01,2013-01-05 15:32:00,
2013-01-05 09:37:00,30.2,23.2,28.97,SSW,195,8.7,11.0,75,0.00,,BKN200,0.00,VWS V14.01,2013-01-05 15:37:00,
2013-01-05 09:42:00,30.2,23.2,28.97,South,186,4.0,4.0,75,0.00,,BKN200,0.00,VWS V14.01,2013-01-05 15:42:00,
2013-01-05 09:47:00,30.2,23.2,28.97,SSE,160,5.8,7.6,75,0.00,,BKN200,0.00,VWS V14.01,2013-01-05 15:47:00,
2013-01-05 09:52:00,30.2,23.2,28.97,South,171,8.3,8.3,75,0.00,,BKN200,0.00,VWS V14.01,2013-01-05 15:52:00,
2013-01-05 09:57:00,30.2,23.2,28.97,SSE,168,4.0,6.3,75,0.00,,BKN200,0.00,VWS V14.01,2013-01-05 15:57:00,
2013-01-05 10:02:00,30.4,23.4,28.97,SSW,192,4.5,4.5,75,0.00,,BKN200,0.00,VWS V14.01,2013-01-05 16:02:00,
2013-01-05 10:07:00,30.6,23.6,28.97,South,172,6.3,6.3,75,0.00,,BKN200,0.00,VWS V14.01,2013-01-05 16:07:00,
2013-01-05 10:12:00,30.9,24.3,28.97,SSE,165,3.6,7.6,76,0.00,,BKN200,0.00,VWS V14.01,2013-01-05 16:12:00,
2013-01-05 10:17:00,31.1,24.4,28.97,South,179,6.3,6.3,76,0.00,,BKN200,0.00,VWS V14.01,2013-01-05 16:17:00,
2013-01-05 10:22:00,31.5,25.1,28.97,South,173,8.1,8.1,77,0.00,,BKN200,0.00,VWS V14.01,2013-01-05 16:22:00,
2013-01-05 10:27:00,32.0,25.6,28.97,South,184,8.7,8.7,77,0.00,,BKN200,0.00,VWS V14.01,2013-01-05 16:27:00,
2013-01-05 10:32:00,32.2,25.8,28.97,South,184,2.7,5.8,77,0.00,,BKN200,0.00,VWS V14.01,2013-01-05 16:32:00,
2013-01-05 10:37:00,32.5,26.5,28.97,South,175,7.6,8.7,78,0.00,,BKN200,0.00,VWS V14.01,2013-01-05 16:37:00,
2013-01-05 10:42:00,32.7,26.6,28.97,South,170,5.8,5.8,78,0.00,,BKN200,0.00,VWS V14.01,2013-01-05 16:42:00,
2013-01-05 10:48:00,33.1,27.0,28.97,South,182,0.0,4.0,78,0.00,,BKN200,0.00,VWS V14.01,2013-01-05 16:48:00,
2013-01-05 10:53:00,33.4,27.3,28.97,South,179,5.8,8.1,78,0.00,,BKN200,0.00,VWS V14.01,2013-01-05 16:53:00,
2013-01-05 10:58:00,33.8,27.7,28.94,SSE,163,3.1,8.3,78,0.00,,BKN200,0.00,VWS V14.01,2013-01-05 16:58:00,
2013-01-05 11:03:00,34.3,28.2,28.94,SSE,164,6.3,8.3,78,0.00,,BKN200,0.00,VWS V14.01,2013-01-05 17:03:00,
2013-01-05 11:08:00,34.5,28.1,28.94,SSE,166,0.0,5.4,77,0.00,,BKN200,0.00,VWS V14.01,2013-01-05 17:08:00,
2013-01-05 11:13:00,34.9,28.4,28.94,SSE,162,6.3,6.3,77,0.00,,BKN200,0.00,VWS V14.01,2013-01-05 17:13:00,
2013-01-05 11:18:00,35.4,28.9,28.94,South,189,8.1,8.1,77,0.00,,BKN200,0.00,VWS V14.01,2013-01-05 17:18:00,
2013-01-05 11:23:00,35.6,28.8,28.94,South,171,8.1,10.5,76,0.00,,BKN200,0.00,VWS V14.01,2013-01-05 17:23:00,
2013-01-05 11:28:00,35.8,29.0,28.94,SSW,192,7.6,10.5,76,0.00,,BKN200,0.00,VWS V14.01,2013-01-05 17:28:00,
2013-01-05 11:33:00,36.3,29.5,28.94,South,186,10.1,11.9,76,0.00,,BKN200,0.00,VWS V14.01,2013-01-05 17:33:00,
2013-01-05 11:38:00,36.7,29.5,28.94,South,176,8.1,8.1,75,0.00,,BKN200,0.00,VWS V14.01,2013-01-05 17:38:00,
2013-01-05 11:43:00,36.9,29.7,28.91,South,173,5.4,5.8,75,0.00,,BKN200,0.00,VWS V14.01,2013-01-05 17:43:00,
2013-01-05 11:48:00,37.0,29.5,28.91,SSE,157,10.5,11.0,74,0.00,,BKN200,0.00,VWS V14.01,2013-01-05 17:48:00,
2013-01-05 11:53:00,37.2,29.7,28.91,SSE,167,8.3,8.7,74,0.00,,BKN200,0.00,VWS V14.01,2013-01-05 17:53:00,
2013-01-05 11:58:00,37.2,29.4,28.91,SSE,164,7.6,11.0,73,0.00,,BKN200,0.00,VWS V14.01,2013-01-05 17:58:00,
2013-01-05 12:03:00,37.4,29.5,28.91,South,182,12.8,14.1,73,0.00,,BKN200,0.00,VWS V14.01,2013-01-05 18:03:00,
2013-01-05 12:08:00,37.4,29.5,28.91,SSW,200,11.0,12.8,73,0.00,,BKN200,0.00,VWS V14.01,2013-01-05 18:08:00,
2013-01-05 12:13:00,37.4,29.5,28.91,South,180,6.3,8.7,73,0.00,,BKN200,0.00,VWS V14.01,2013-01-05 18:13:00,
2013-01-05 12:18:00,37.4,29.5,28.91,South,186,8.3,10.5,73,0.00,,BKN200,0.00,VWS V14.01,2013-01-05 18:18:00,
2013-01-05 12:23:00,37.2,29.4,28.91,South,190,3.1,7.6,73,0.00,,BKN200,0.00,VWS V14.01,2013-01-05 18:23:00,
2013-01-05 12:29:00,37.0,29.5,28.91,SSW,194,8.1,11.0,74,0.00,,BKN200,0.00,VWS V14.01,2013-01-05 18:29:00,
2013-01-05 12:34:00,37.0,29.5,28.91,South,179,10.5,10.5,74,0.00,,BKN200,0.00,VWS V14.01,2013-01-05 18:34:00,
2013-01-05 12:39:00,37.0,29.5,28.91,SSW,199,10.1,10.1,74,0.00,,BKN200,0.00,VWS V14.01,2013-01-05 18:39:00,
2013-01-05 12:44:00,37.0,29.9,28.88,South,188,8.1,15.0,75,0.00,,BKN200,0.00,VWS V14.01,2013-01-05 18:44:00,
2013-01-05 12:49:00,37.0,29.9,28.88,SSW,197,8.1,8.1,75,0.00,,BKN200,0.00,VWS V14.01,2013-01-05 18:49:00,
2013-01-05 12:54:00,37.0,29.9,28.88,South,178,10.1,10.1,75,0.00,,BKN200,0.00,VWS V14.01,2013-01-05 18:54:00,
2013-01-05 12:59:00,37.0,29.9,28.88,South,170,8.1,13.6,75,0.00,,BKN200,0.00,VWS V14.01,2013-01-05 18:59:00,
2013-01-05 13:04:00,37.0,29.9,28.88,SSE,147,10.1,10.1,75,0.00,,BKN200,0.00,VWS V14.01,2013-01-05 19:04:00,
2013-01-05 13:09:00,37.0,29.9,28.88,SSW,199,6.3,8.7,75,0.00,,BKN200,0.00,VWS V14.01,2013-01-05 19:09:00,
2013-01-05 13:14:00,37.0,29.9,28.85,South,190,6.3,8.7,75,0.00,,BKN200,0.00,VWS V14.01,2013-01-05 19:14:00,
2013-01-05 13:19:00,37.0,29.9,28.85,SSW,197,8.7,12.8,75,0.00,,BKN200,0.00,VWS V14.01,2013-01-05 19:19:00,
2013-01-05 13:24:00,37.0,30.2,28.85,South,187,7.6,8.1,76,0.00,,BKN200,0.00,VWS V14.01,2013-01-05 19:24:00,
2013-01-05 13:29:00,37.0,30.2,28.85,South,189,5.4,8.7,76,0.00,,BKN200,0.00,VWS V14.01,2013-01-05 19:29:00,
2013-01-05 13:35:00,37.0,30.2,28.85,South,172,5.4,6.7,76,0.00,,BKN200,0.00,VWS V14.01,2013-01-05 19:35:00,
2013-01-05 13:40:00,37.0,30.2,28.85,SSW,193,6.3,10.5,76,0.00,,BKN200,0.00,VWS V14.01,2013-01-05 19:40:00,
2013-01-05 13:44:00,36.9,30.0,28.85,South,187,8.7,11.0,76,0.00,,BKN200,0.00,VWS V14.01,2013-01-05 19:44:00,
2013-01-05 13:50:00,36.9,30.0,28.85,SSW,198,5.4,7.6,76,0.00,,BKN200,0.00,VWS V14.01,2013-01-05 19:50:00,
2013-01-05 13:55:00,36.9,30.0,28.85,South,190,6.3,8.1,76,0.00,,BKN200,0.00,VWS V14.01,2013-01-05 19:55:00,
2013-01-05 14:00:00,36.9,30.0,28.85,SSW,206,9.2,9.2,76,0.00,,BKN200,0.00,VWS V14.01,2013-01-05 20:00:00,
2013-01-05 14:05:00,36.9,30.0,28.85,SW,216,12.3,12.8,76,0.00,,OVC018,0.00,VWS V14.01,2013-01-05 20:05:00,
2013-01-05 14:10:00,36.9,30.0,28.85,SSW,192,4.5,5.8,76,0.00,,OVC018,0.00,VWS V14.01,2013-01-05 20:10:00,
2013-01-05 14:15:00,36.9,30.0,28.85,SSW,198,5.8,8.7,76,0.00,,OVC018,0.00,VWS V14.01,2013-01-05 20:15:00,
2013-01-05 14:20:00,36.9,30.0,28.85,South,174,7.2,8.3,76,0.00,,OVC018,0.00,VWS V14.01,2013-01-05 20:20:00,
2013-01-05 14:25:00,36.9,30.0,28.85,SSW,196,5.8,8.7,76,0.00,,OVC018,0.00,VWS V14.01,2013-01-05 20:25:00,
2013-01-05 14:30:00,37.0,30.2,28.82,SSW,204,6.3,10.5,76,0.00,,OVC018,0.00,VWS V14.01,2013-01-05 20:30:00,
2013-01-05 14:35:00,37.0,30.2,28.82,South,182,6.3,6.3,76,0.00,,OVC018,0.00,VWS V14.01,2013-01-05 20:35:00,
2013-01-05 14:40:00,37.2,30.4,28.82,South,187,5.4,6.3,76,0.00,,OVC018,0.00,VWS V14.01,2013-01-05 20:40:00,
2013-01-05 14:45:00,37.4,30.2,28.85,South,181,5.8,5.8,75,0.00,,OVC018,0.00,VWS V14.01,2013-01-05 20:45:00,
2013-01-05 14:50:00,37.4,30.2,28.85,South,190,5.8,8.7,75,0.00,,OVC018,0.00,VWS V14.01,2013-01-05 20:50:00,
2013-01-05 14:55:00,37.4,30.2,28.85,South,183,8.7,8.7,75,0.00,,OVC018,0.00,VWS V14.01,2013-01-05 20:55:00,
2013-01-05 15:00:00,37.4,30.2,28.85,South,182,5.8,6.3,75,0.00,,OVC018,0.00,VWS V14.01,2013-01-05 21:00:00,
2013-01-05 15:05:00,37.4,30.2,28.85,South,180,2.7,5.8,75,0.00,,OVC018,0.00,VWS V14.01,2013-01-05 21:05:00,
2013-01-05 15:10:00,37.6,30.4,28.85,South,190,2.7,5.8,75,0.00,,OVC018,0.00,VWS V14.01,2013-01-05 21:10:00,
2013-01-05 15:15:00,37.6,30.4,28.85,SSW,213,3.1,5.4,75,0.00,,OVC018,0.00,VWS V14.01,2013-01-05 21:15:00,
2013-01-05 15:20:00,37.6,30.4,28.85,South,169,4.9,5.8,75,0.00,,OVC018,0.00,VWS V14.01,2013-01-05 21:20:00,
2013-01-05 15:25:00,37.6,30.4,28.85,South,186,3.1,8.1,75,0.00,,OVC018,0.00,VWS V14.01,2013-01-05 21:25:00,
2013-01-05 15:30:00,37.6,30.4,28.85,SSW,212,0.0,5.8,75,0.00,,OVC018,0.00,VWS V14.01,2013-01-05 21:30:00,
2013-01-05 15:35:00,37.6,30.4,28.85,South,183,4.0,7.6,75,0.00,,OVC018,0.00,VWS V14.01,2013-01-05 21:35:00,
2013-01-05 15:40:00,37.6,30.1,28.85,SSW,199,6.3,8.3,74,0.00,,OVC018,0.00,VWS V14.01,2013-01-05 21:40:00,
2013-01-05 15:46:00,37.6,30.1,28.85,South,189,3.1,8.7,74,0.00,,OVC018,0.00,VWS V14.01,2013-01-05 21:46:00,
2013-01-05 15:51:00,37.6,29.7,28.85,SSW,193,3.1,8.7,73,0.00,,OVC018,0.00,VWS V14.01,2013-01-05 21:51:00,
2013-01-05 15:56:00,37.4,29.5,28.85,SW,219,10.5,10.5,73,0.00,,OVC018,0.00,VWS V14.01,2013-01-05 21:56:00,
2013-01-05 16:01:00,37.4,29.2,28.85,SW,214,2.7,6.7,72,0.00,,BKN023,0.00,VWS V14.01,2013-01-05 22:01:00,
2013-01-05 16:06:00,37.4,29.2,28.85,SSW,208,4.9,8.3,72,0.00,,BKN023,0.00,VWS V14.01,2013-01-05 22:06:00,
2013-01-05 16:11:00,37.4,29.2,28.85,SW,216,9.6,9.6,72,0.00,,BKN023,0.00,VWS V14.01,2013-01-05 22:11:00,
2013-01-05 16:16:00,37.2,29.0,28.85,SSW,198,0.0,8.1,72,0.00,,BKN023,0.00,VWS V14.01,2013-01-05 22:16:00,
2013-01-05 16:21:00,37.2,29.0,28.85,SW,218,3.1,3.6,72,0.00,,BKN023,0.00,VWS V14.01,2013-01-05 22:21:00,
2013-01-05 16:26:00,37.2,29.0,28.85,WSW,237,6.3,8.1,72,0.00,,BKN023,0.00,VWS V14.01,2013-01-05 22:26:00,
2013-01-05 16:31:00,37.0,28.9,28.85,SSW,206,6.3,8.1,72,0.00,,BKN023,0.00,VWS V14.01,2013-01-05 22:31:00,
2013-01-05 16:36:00,37.0,28.9,28.85,SW,225,5.4,8.1,72,0.00,,BKN023,0.00,VWS V14.01,2013-01-05 22:36:00,
2013-01-05 16:41:00,36.9,28.7,28.85,WSW,238,4.5,6.7,72,0.00,,BKN023,0.00,VWS V14.01,2013-01-05 22:41:00,
2013-01-05 16:46:00,36.9,29.0,28.85,SW,227,7.2,7.6,73,0.00,,BKN023,0.00,VWS V14.01,2013-01-05 22:46:00,
2013-01-05 16:51:00,36.7,28.9,28.85,SW,224,3.6,10.1,73,0.00,,BKN023,0.00,VWS V14.01,2013-01-05 22:51:00,
2013-01-05 16:56:00,36.7,28.9,28.85,WSW,237,8.3,8.3,73,0.00,,BKN023,0.00,VWS V14.01,2013-01-05 22:56:00,
2013-01-05 17:01:00,36.5,28.7,28.85,SW,221,0.0,0.0,73,0.00,,BKN023,0.00,VWS V14.01,2013-01-05 23:01:00,
2013-01-05 17:06:00,36.1,28.3,28.85,WSW,253,10.1,13.2,73,0.00,,BKN023,0.00,VWS V14.01,2013-01-05 23:06:00,
2013-01-05 17:11:00,36.0,27.8,28.85,SW,233,7.6,15.4,72,0.00,,BKN023,0.00,VWS V14.01,2013-01-05 23:11:00,
2013-01-05 17:16:00,35.8,27.6,28.88,SW,235,8.1,13.2,72,0.00,,BKN023,0.00,VWS V14.01,2013-01-05 23:16:00,
2013-01-05 17:21:00,35.4,27.3,28.88,SW,217,6.3,6.7,72,0.00,,BKN023,0.00,VWS V14.01,2013-01-05 23:21:00,
2013-01-05 17:26:00,35.2,26.8,28.88,SW,223,11.0,11.0,71,0.00,,BKN023,0.00,VWS V14.01,2013-01-05 23:26:00,
2013-01-05 17:31:00,35.1,26.6,28.88,SW,236,6.3,10.5,71,0.00,,BKN023,0.00,VWS V14.01,2013-01-05 23:31:00,
2013-01-05 17:36:00,34.7,25.9,28.88,SW,216,12.3,14.5,70,0.00,,BKN023,0.00,VWS V14.01,2013-01-05 23:36:00,
2013-01-05 17:41:00,34.5,25.8,28.88,WSW,241,7.6,8.1,70,0.00,,BKN023,0.00,VWS V14.01,2013-01-05 23:41:00,
2013-01-05 17:46:00,34.3,25.2,28.88,WSW,256,12.3,13.6,69,0.00,,BKN023,0.00,VWS V14.01,2013-01-05 23:46:00,
2013-01-05 17:51:00,34.0,24.5,28.88,WSW,251,6.3,7.6,68,0.00,,BKN023,0.00,VWS V14.01,2013-01-05 23:51:00,
2013-01-05 17:56:00,33.8,24.4,28.88,WSW,249,7.6,8.3,68,0.00,,BKN023,0.00,VWS V14.01,2013-01-05 23:56:00,
2013-01-05 18:01:00,33.6,23.9,28.88,WSW,258,10.5,11.0,67,0.00,,CLR,0.00,VWS V14.01,2013-01-06 00:01:00,
2013-01-05 18:07:00,33.3,22.8,28.88,WSW,252,8.7,8.7,65,0.00,,CLR,0.00,VWS V14.01,2013-01-06 00:07:00,
2013-01-05 18:12:00,33.1,21.9,28.88,West,260,10.1,10.1,63,0.00,,CLR,0.00,VWS V14.01,2013-01-06 00:12:00,
2013-01-05 18:17:00,32.9,21.3,28.91,WSW,251,11.0,12.8,62,0.00,,CLR,0.00,VWS V14.01,2013-01-06 00:17:00,
2013-01-05 18:22:00,32.7,21.1,28.91,WSW,251,8.7,11.0,62,0.00,,CLR,0.00,VWS V14.01,2013-01-06 00:22:00,
2013-01-05 18:27:00,32.4,20.4,28.91,WSW,252,12.3,12.3,61,0.00,,CLR,0.00,VWS V14.01,2013-01-06 00:27:00,
2013-01-05 18:32:00,32.4,20.0,28.91,WSW,243,8.3,12.8,60,0.00,,CLR,0.00,VWS V14.01,2013-01-06 00:32:00,
2013-01-05 18:37:00,32.2,19.9,28.91,WSW,240,10.5,10.5,60,0.00,,CLR,0.00,VWS V14.01,2013-01-06 00:37:00,
2013-01-05 18:42:00,32.0,19.7,28.91,SW,236,6.3,6.3,60,0.00,,CLR,0.00,VWS V14.01,2013-01-06 00:42:00,
2013-01-05 18:47:00,31.8,19.5,28.91,WSW,256,6.3,8.3,60,0.00,,CLR,0.00,VWS V14.01,2013-01-06 00:47:00,
2013-01-05 18:52:00,31.8,19.5,28.91,West,261,7.6,8.7,60,0.00,,CLR,0.00,VWS V14.01,2013-01-06 00:52:00,
2013-01-05 18:57:00,31.5,19.6,28.91,WSW,254,5.4,5.4,61,0.00,,CLR,0.00,VWS V14.01,2013-01-06 00:57:00,
2013-01-05 19:02:00,31.5,19.6,28.94,WSW,246,8.1,8.1,61,0.00,,CLR,0.00,VWS V14.01,2013-01-06 01:02:00,
2013-01-05 19:07:00,31.3,19.4,28.94,WSW,257,6.3,10.1,61,0.00,,CLR,0.00,VWS V14.01,2013-01-06 01:07:00,
2013-01-05 19:12:00,31.1,19.2,28.94,WSW,244,6.3,8.7,61,0.00,,CLR,0.00,VWS V14.01,2013-01-06 01:12:00,
2013-01-05 19:17:00,31.1,19.2,28.94,WSW,250,5.4,8.1,61,0.00,,CLR,0.00,VWS V14.01,2013-01-06 01:17:00,
2013-01-05 19:22:00,30.9,19.1,28.94,WSW,247,10.1,11.4,61,0.00,,CLR,0.00,VWS V14.01,2013-01-06 01:22:00,
2013-01-05 19:27:00,30.6,18.3,28.94,WSW,247,8.7,8.7,60,0.00,,CLR,0.00,VWS V14.01,2013-01-06 01:27:00,
2013-01-05 19:32:00,30.4,18.2,28.94,West,261,11.0,11.0,60,0.00,,CLR,0.00,VWS V14.01,2013-01-06 01:32:00,
2013-01-05 19:37:00,30.2,18.0,28.94,West,264,7.2,8.3,60,0.00,,CLR,0.00,VWS V14.01,2013-01-06 01:37:00,
2013-01-05 19:42:00,30.2,18.4,28.94,WSW,251,9.6,9.6,61,0.00,,CLR,0.00,VWS V14.01,2013-01-06 01:42:00,
2013-01-05 19:47:00,30.2,18.4,28.94,West,260,7.6,8.7,61,0.00,,CLR,0.00,VWS V14.01,2013-01-06 01:47:00,
2013-01-05 19:52:00,30.2,18.8,28.94,WSW,238,5.8,5.8,62,0.00,,CLR,0.00,VWS V14.01,2013-01-06 01:52:00,
2013-01-05 19:58:00,30.2,18.8,28.94,WSW,256,8.1,8.1,62,0.00,,CLR,0.00,VWS V14.01,2013-01-06 01:58:00,
2013-01-05 20:03:00,30.2,18.8,28.94,West,261,8.3,8.3,62,0.00,,OVC026,0.00,VWS V14.01,2013-01-06 02:03:00,
2013-01-05 20:08:00,30.2,18.8,28.94,West,267,5.4,7.6,62,0.00,,OVC026,0.00,VWS V14.01,2013-01-06 02:08:00,
2013-01-05 20:13:00,30.2,18.8,28.97,West,277,5.4,5.8,62,0.00,,OVC026,0.00,VWS V14.01,2013-01-06 02:13:00,
2013-01-05 20:18:00,30.0,18.6,28.97,West,262,2.7,6.3,62,0.00,,OVC026,0.00,VWS V14.01,2013-01-06 02:18:00,
2013-01-05 20:23:00,30.0,19.0,28.97,WSW,256,3.1,5.4,63,0.00,,OVC026,0.00,VWS V14.01,2013-01-06 02:23:00,
2013-01-05 20:28:00,29.8,18.8,28.97,WSW,253,8.3,8.3,63,0.00,,OVC026,0.00,VWS V14.01,2013-01-06 02:28:00,
2013-01-05 20:33:00,29.8,18.8,28.97,WSW,257,2.2,4.9,63,0.00,,OVC026,0.00,VWS V14.01,2013-01-06 02:33:00,
2013-01-05 20:38:00,29.8,19.2,28.97,WSW,244,5.8,5.8,64,0.00,,OVC026,0.00,VWS V14.01,2013-01-06 02:38:00,
2013-01-05 20:43:00,29.8,19.2,28.97,WSW,246,0.0,5.8,64,0.00,,OVC026,0.00,VWS V14.01,2013-01-06 02:43:00,
2013-01-05 20:48:00,29.8,19.2,28.97,WSW,240,2.2,4.0,64,0.00,,OVC026,0.00,VWS V14.01,2013-01-06 02:48:00,
2013-01-05 20:53:00,29.8,19.2,28.97,WSW,240,0.0,3.1,64,0.00,,OVC026,0.00,VWS V14.01,2013-01-06 02:53:00,
2013-01-05 20:58:00,29.8,19.2,28.97,West,264,0.0,5.8,64,0.00,,OVC026,0.00,VWS V14.01,2013-01-06 02:58:00,
2013-01-05 21:03:00,29.8,19.5,28.97,SW,218,0.0,7.6,65,0.00,,OVC026,0.00,VWS V14.01,2013-01-06 03:03:00,
2013-01-05 21:08:00,29.8,19.5,28.97,WSW,251,3.1,3.1,65,0.00,,OVC026,0.00,VWS V14.01,2013-01-06 03:08:00,
2013-01-05 21:14:00,30.0,19.7,28.97,West,260,5.4,6.3,65,0.00,,OVC026,0.00,VWS V14.01,2013-01-06 03:14:00,
2013-01-05 21:19:00,29.8,19.5,28.97,WSW,251,0.0,3.1,65,0.00,,OVC026,0.00,VWS V14.01,2013-01-06 03:19:00,
2013-01-05 21:24:00,29.8,19.5,28.97,WSW,253,12.3,12.3,65,0.00,,OVC026,0.00,VWS V14.01,2013-01-06 03:24:00,
2013-01-05 21:29:00,29.7,19.0,28.97,West,263,11.0,15.0,64,0.00,,OVC026,0.00,VWS V14.01,2013-01-06 03:29:00,
2013-01-05 21:34:00,29.5,19.2,28.97,WSW,258,8.7,11.9,65,0.00,,OVC026,0.00,VWS V14.01,2013-01-06 03:34:00,
2013-01-05 21:39:00,29.3,18.6,28.97,West,262,10.1,11.0,64,0.00,,OVC026,0.00,VWS V14.01,2013-01-06 03:39:00,
2013-01-05 21:44:00,28.8,17.8,28.97,WNW,291,10.1,11.0,63,0.00,,OVC026,0.00,VWS V14.01,2013-01-06 03:44:00,
2013-01-05 21:49:00,28.4,17.1,28.97,WSW,250,8.1,12.3,62,0.00,,OVC026,0.00,VWS V14.01,2013-01-06 03:49:00,
2013-01-05 21:54:00,28.2,16.9,28.97,West,265,11.0,13.6,62,0.00,,OVC026,0.00,VWS V14.01,2013-01-06 03:54:00,
2013-01-05 21:59:00,27.9,16.2,28.97,WSW,258,11.0,11.0,61,0.00,,OVC026,0.00,VWS V14.01,2013-01-06 03:59:00,
2013-01-05 22:04:00,27.9,16.2,28.97,SW,235,12.3,12.3,61,0.00,,,0.00,VWS V14.01,2013-01-06 04:04:00,
2013-01-05 22:09:00,27.7,16.0,28.97,West,260,12.3,12.8,61,0.00,,,0.00,VWS V14.01,2013-01-06 04:09:00,
2013-01-05 22:14:00,27.7,16.0,28.97,West,266,10.1,10.1,61,0.00,,,0.00,VWS V14.01,2013-01-06 04:14:00,
2013-01-05 22:19:00,27.5,16.2,28.97,SW,234,8.7,8.7,62,0.00,,,0.00,VWS V14.01,2013-01-06 04:19:00,
2013-01-05 22:24:00,27.5,16.2,28.97,West,261,10.5,11.9,62,0.00,,,0.00,VWS V14.01,2013-01-06 04:24:00,
2013-01-05 22:29:00,27.3,16.4,28.97,West,271,8.3,10.5,63,0.00,,,0.00,VWS V14.01,2013-01-06 04:29:00,
2013-01-05 22:34:00,27.1,16.2,28.97,West,267,8.3,8.3,63,0.00,,,0.00,VWS V14.01,2013-01-06 04:34:00,
2013-01-05 22:39:00,27.0,16.4,28.97,West,270,10.5,13.6,64,0.00,,,0.00,VWS V14.01,2013-01-06 04:39:00,
2013-01-05 22:44:00,27.0,16.8,28.97,West,276,6.3,8.1,65,0.00,,,0.00,VWS V14.01,2013-01-06 04:44:00,
2013-01-05 22:49:00,27.0,17.1,28.97,WSW,257,10.5,12.8,66,0.00,,,0.00,VWS V14.01,2013-01-06 04:49:00,
2013-01-05 22:55:00,27.0,17.1,28.97,WSW,248,8.7,11.0,66,0.00,,,0.00,VWS V14.01,2013-01-06 04:55:00,
2013-01-05 23:00:00,26.6,17.5,29.00,West,260,12.8,12.8,68,0.00,,,0.00,VWS V14.01,2013-01-06 05:00:00,
2013-01-05 23:01:00,26.6,17.5,29.00,West,263,11.9,12.8,68,0.00,,,0.00,VWS V14.01,2013-01-06 05:01:00,
2013-01-05 23:02:00,26.4,17.6,29.00,WSW,240,8.7,11.9,69,0.00,,,0.00,VWS V14.01,2013-01-06 05:02:00,
2013-01-05 23:03:00,26.4,17.6,29.00,West,274,13.2,13.2,69,0.00,,,0.00,VWS V14.01,2013-01-06 05:03:00,
2013-01-05 23:08:00,26.2,17.8,29.00,West,265,10.1,10.1,70,0.00,,,0.00,VWS V14.01,2013-01-06 05:08:00,
2013-01-05 23:13:00,26.1,18.0,29.00,WSW,254,4.0,11.0,71,0.00,,,0.00,VWS V14.01,2013-01-06 05:13:00,
2013-01-05 23:18:00,26.1,18.0,29.00,West,260,14.5,14.5,71,0.00,,,0.00,VWS V14.01,2013-01-06 05:18:00,
2013-01-05 23:23:00,25.7,17.6,29.00,West,269,11.0,11.0,71,0.00,,,0.00,VWS V14.01,2013-01-06 05:23:00,
2013-01-05 23:28:00,25.7,17.6,29.00,West,261,12.3,15.4,71,0.00,,,0.00,VWS V14.01,2013-01-06 05:28:00,
2013-01-05 23:33:00,25.3,16.9,29.00,West,259,11.0,15.4,70,0.00,,,0.00,VWS V14.01,2013-01-06 05:33:00,
2013-01-05 23:38:00,25.2,16.4,29.00,West,268,11.9,13.2,69,0.00,,,0.00,VWS V14.01,2013-01-06 05:38:00,
2013-01-05 23:43:00,25.0,15.9,29.00,West,277,8.7,10.1,68,0.00,,,0.00,VWS V14.01,2013-01-06 05:43:00,
2013-01-05 23:48:00,24.8,15.8,29.00,West,264,14.5,14.5,68,0.00,,,0.00,VWS V14.01,2013-01-06 05:48:00,
2013-01-05 23:53:00,24.8,15.8,29.00,West,271,8.1,8.3,68,0.00,,,0.00,VWS V14.01,2013-01-06 05:53:00,
2013-01-05 23:58:00,24.6,15.6,29.00,West,260,10.5,11.0,68,0.00,,,0.00,VWS V14.01,2013-01-06 05:58:00,